sensor_id;sensor_type;location;lat;lon;timestamp;P1;durP1;ratioP1;P2;durP2;ratioP2
73428;SDS011;61643;49.564;17.412;2023-02-28T00:01:25;9.60;;;3.83;;
73428;SDS011;61643;49.564;17.412;2023-02-28T00:03:51;12.70;;;4.22;;
73428;SDS011;61643;49.564;17.412;2023-02-28T00:06:17;10.43;;;4.80;;
73428;SDS011;61643;49.564;17.412;2023-02-28T00:08:43;10.05;;;4.20;;
73428;SDS011;61643;49.564;17.412;2023-02-28T00:11:11;8.98;;;3.63;;
73428;SDS011;61643;49.564;17.412;2023-02-28T00:13:39;10.65;;;4.57;;
73428;SDS011;61643;49.564;17.412;2023-02-28T00:16:09;12.00;;;5.03;;
73428;SDS011;61643;49.564;17.412;2023-02-28T00:18:39;11.98;;;5.20;;
73428;SDS011;61643;49.564;17.412;2023-02-28T00:21:06;11.73;;;5.18;;
73428;SDS011;61643;49.564;17.412;2023-02-28T00:23:32;13.27;;;5.25;;
73428;SDS011;61643;49.564;17.412;2023-02-28T00:25:58;9.45;;;4.43;;
73428;SDS011;61643;49.564;17.412;2023-02-28T00:28:25;13.32;;;5.15;;
73428;SDS011;61643;49.564;17.412;2023-02-28T00:30:51;9.23;;;4.57;;
73428;SDS011;61643;49.564;17.412;2023-02-28T00:33:17;12.70;;;5.18;;
73428;SDS011;61643;49.564;17.412;2023-02-28T00:35:43;13.38;;;5.28;;
73428;SDS011;61643;49.564;17.412;2023-02-28T00:40:38;10.13;;;3.88;;
73428;SDS011;61643;49.564;17.412;2023-02-28T00:43:04;6.53;;;3.05;;
73428;SDS011;61643;49.564;17.412;2023-02-28T00:45:30;8.63;;;4.10;;
73428;SDS011;61643;49.564;17.412;2023-02-28T00:47:56;10.70;;;3.92;;
73428;SDS011;61643;49.564;17.412;2023-02-28T00:50:22;8.68;;;3.38;;
73428;SDS011;61643;49.564;17.412;2023-02-28T00:52:48;12.20;;;5.00;;
73428;SDS011;61643;49.564;17.412;2023-02-28T00:55:14;11.75;;;4.28;;
73428;SDS011;61643;49.564;17.412;2023-02-28T00:57:40;14.73;;;5.30;;
73428;SDS011;61643;49.564;17.412;2023-02-28T01:00:07;11.23;;;4.38;;
73428;SDS011;61643;49.564;17.412;2023-02-28T01:02:33;11.88;;;4.90;;
73428;SDS011;61643;49.564;17.412;2023-02-28T01:04:59;11.07;;;4.57;;
73428;SDS011;61643;49.564;17.412;2023-02-28T01:07:25;15.55;;;6.07;;
73428;SDS011;61643;49.564;17.412;2023-02-28T01:09:51;11.50;;;4.18;;
73428;SDS011;61643;49.564;17.412;2023-02-28T01:12:17;11.85;;;4.68;;
73428;SDS011;61643;49.564;17.412;2023-02-28T01:14:43;12.63;;;5.32;;
73428;SDS011;61643;49.564;17.412;2023-02-28T01:17:09;13.45;;;5.05;;
73428;SDS011;61643;49.564;17.412;2023-02-28T01:19:35;11.07;;;4.07;;
73428;SDS011;61643;49.564;17.412;2023-02-28T01:22:02;11.02;;;4.25;;
73428;SDS011;61643;49.564;17.412;2023-02-28T01:24:29;14.88;;;5.38;;
73428;SDS011;61643;49.564;17.412;2023-02-28T01:26:55;11.60;;;4.78;;
73428;SDS011;61643;49.564;17.412;2023-02-28T01:29:21;11.48;;;4.53;;
73428;SDS011;61643;49.564;17.412;2023-02-28T01:31:47;12.18;;;5.22;;
73428;SDS011;61643;49.564;17.412;2023-02-28T01:34:13;9.50;;;4.60;;
73428;SDS011;61643;49.564;17.412;2023-02-28T01:36:39;12.02;;;4.63;;
73428;SDS011;61643;49.564;17.412;2023-02-28T01:39:05;13.88;;;5.40;;
73428;SDS011;61643;49.564;17.412;2023-02-28T01:41:32;14.95;;;5.28;;
73428;SDS011;61643;49.564;17.412;2023-02-28T01:46:29;11.20;;;5.00;;
73428;SDS011;61643;49.564;17.412;2023-02-28T01:48:58;14.85;;;5.55;;
73428;SDS011;61643;49.564;17.412;2023-02-28T01:54:17;9.35;;;3.83;;
73428;SDS011;61643;49.564;17.412;2023-02-28T01:56:47;11.98;;;4.70;;
73428;SDS011;61643;49.564;17.412;2023-02-28T01:59:22;12.77;;;4.47;;
73428;SDS011;61643;49.564;17.412;2023-02-28T02:02:10;12.90;;;5.07;;
73428;SDS011;61643;49.564;17.412;2023-02-28T02:05:23;11.75;;;5.05;;
73428;SDS011;61643;49.564;17.412;2023-02-28T02:07:22;9.60;;;4.35;;
73428;SDS011;61643;49.564;17.412;2023-02-28T02:09:49;16.33;;;5.35;;
73428;SDS011;61643;49.564;17.412;2023-02-28T02:12:21;12.68;;;5.47;;
73428;SDS011;61643;49.564;17.412;2023-02-28T02:35:54;9.23;;;4.10;;
73428;SDS011;61643;49.564;17.412;2023-02-28T02:43:51;11.48;;;5.03;;
73428;SDS011;61643;49.564;17.412;2023-02-28T02:46:34;7.88;;;4.07;;
73428;SDS011;61643;49.564;17.412;2023-02-28T02:49:06;15.35;;;5.63;;
73428;SDS011;61643;49.564;17.412;2023-02-28T02:51:38;14.07;;;6.13;;
73428;SDS011;61643;49.564;17.412;2023-02-28T02:54:08;11.90;;;4.90;;
73428;SDS011;61643;49.564;17.412;2023-02-28T02:56:42;15.43;;;6.18;;
73428;SDS011;61643;49.564;17.412;2023-02-28T02:59:11;17.77;;;5.53;;
73428;SDS011;61643;49.564;17.412;2023-02-28T03:01:39;13.80;;;5.18;;
73428;SDS011;61643;49.564;17.412;2023-02-28T03:04:08;6.32;;;3.25;;
73428;SDS011;61643;49.564;17.412;2023-02-28T03:06:37;13.93;;;6.10;;
73428;SDS011;61643;49.564;17.412;2023-02-28T03:09:03;14.82;;;5.57;;
73428;SDS011;61643;49.564;17.412;2023-02-28T03:11:30;13.23;;;4.82;;
73428;SDS011;61643;49.564;17.412;2023-02-28T03:23:15;13.45;;;5.70;;
73428;SDS011;61643;49.564;17.412;2023-02-28T03:31:32;14.40;;;5.35;;
73428;SDS011;61643;49.564;17.412;2023-02-28T03:34:08;13.43;;;4.78;;
73428;SDS011;61643;49.564;17.412;2023-02-28T03:36:41;15.63;;;5.10;;
73428;SDS011;61643;49.564;17.412;2023-02-28T03:39:17;11.15;;;4.78;;
73428;SDS011;61643;49.564;17.412;2023-02-28T03:42:06;17.40;;;5.60;;
73428;SDS011;61643;49.564;17.412;2023-02-28T03:44:43;17.02;;;6.20;;
73428;SDS011;61643;49.564;17.412;2023-02-28T03:47:16;9.07;;;4.35;;
73428;SDS011;61643;49.564;17.412;2023-02-28T03:49:49;11.05;;;4.20;;
73428;SDS011;61643;49.564;17.412;2023-02-28T03:52:22;13.50;;;4.82;;
73428;SDS011;61643;49.564;17.412;2023-02-28T03:54:54;5.85;;;2.85;;
73428;SDS011;61643;49.564;17.412;2023-02-28T03:57:27;14.82;;;4.57;;
73428;SDS011;61643;49.564;17.412;2023-02-28T04:00:14;12.18;;;4.82;;
73428;SDS011;61643;49.564;17.412;2023-02-28T04:02:45;17.33;;;6.25;;
73428;SDS011;61643;49.564;17.412;2023-02-28T04:05:11;10.02;;;4.82;;
73428;SDS011;61643;49.564;17.412;2023-02-28T04:07:37;11.65;;;5.07;;
73428;SDS011;61643;49.564;17.412;2023-02-28T04:10:03;12.15;;;5.20;;
73428;SDS011;61643;49.564;17.412;2023-02-28T04:12:30;9.90;;;3.88;;
73428;SDS011;61643;49.564;17.412;2023-02-28T04:14:56;8.20;;;4.25;;
73428;SDS011;61643;49.564;17.412;2023-02-28T04:17:22;13.35;;;5.47;;
73428;SDS011;61643;49.564;17.412;2023-02-28T04:19:48;12.95;;;4.30;;
73428;SDS011;61643;49.564;17.412;2023-02-28T04:22:15;11.10;;;5.30;;
73428;SDS011;61643;49.564;17.412;2023-02-28T04:24:42;9.18;;;4.07;;
73428;SDS011;61643;49.564;17.412;2023-02-28T04:27:09;14.55;;;5.97;;
73428;SDS011;61643;49.564;17.412;2023-02-28T04:29:35;7.50;;;3.03;;
73428;SDS011;61643;49.564;17.412;2023-02-28T04:32:03;16.33;;;6.72;;
73428;SDS011;61643;49.564;17.412;2023-02-28T04:34:30;16.83;;;6.65;;
73428;SDS011;61643;49.564;17.412;2023-02-28T04:36:57;15.82;;;6.10;;
73428;SDS011;61643;49.564;17.412;2023-02-28T04:39:25;14.90;;;3.95;;
73428;SDS011;61643;49.564;17.412;2023-02-28T04:41:51;16.77;;;5.82;;
73428;SDS011;61643;49.564;17.412;2023-02-28T04:44:17;13.05;;;4.97;;
73428;SDS011;61643;49.564;17.412;2023-02-28T04:46:43;12.45;;;5.22;;
73428;SDS011;61643;49.564;17.412;2023-02-28T04:49:11;12.75;;;4.80;;
73428;SDS011;61643;49.564;17.412;2023-02-28T04:51:37;14.68;;;5.68;;
73428;SDS011;61643;49.564;17.412;2023-02-28T04:54:03;9.52;;;4.70;;
73428;SDS011;61643;49.564;17.412;2023-02-28T04:56:29;14.07;;;5.75;;
73428;SDS011;61643;49.564;17.412;2023-02-28T04:58:55;13.43;;;5.38;;
73428;SDS011;61643;49.564;17.412;2023-02-28T05:01:23;17.50;;;6.75;;
73428;SDS011;61643;49.564;17.412;2023-02-28T05:03:51;11.23;;;4.07;;
73428;SDS011;61643;49.564;17.412;2023-02-28T05:06:19;12.23;;;5.05;;
73428;SDS011;61643;49.564;17.412;2023-02-28T05:08:46;16.33;;;7.15;;
73428;SDS011;61643;49.564;17.412;2023-02-28T05:11:31;14.32;;;6.00;;
73428;SDS011;61643;49.564;17.412;2023-02-28T05:14:05;18.02;;;7.38;;
73428;SDS011;61643;49.564;17.412;2023-02-28T05:16:32;12.02;;;4.68;;
73428;SDS011;61643;49.564;17.412;2023-02-28T05:18:58;13.85;;;5.80;;
73428;SDS011;61643;49.564;17.412;2023-02-28T05:21:40;11.50;;;4.57;;
73428;SDS011;61643;49.564;17.412;2023-02-28T05:24:14;9.77;;;4.63;;
73428;SDS011;61643;49.564;17.412;2023-02-28T05:26:41;10.38;;;4.28;;
73428;SDS011;61643;49.564;17.412;2023-02-28T05:29:08;15.13;;;5.95;;
73428;SDS011;61643;49.564;17.412;2023-02-28T05:31:35;11.43;;;4.47;;
73428;SDS011;61643;49.564;17.412;2023-02-28T05:34:02;12.00;;;4.97;;
73428;SDS011;61643;49.564;17.412;2023-02-28T05:36:29;13.98;;;5.22;;
73428;SDS011;61643;49.564;17.412;2023-02-28T05:38:55;13.68;;;4.68;;
73428;SDS011;61643;49.564;17.412;2023-02-28T05:41:21;10.00;;;5.53;;
73428;SDS011;61643;49.564;17.412;2023-02-28T05:43:48;11.70;;;4.75;;
73428;SDS011;61643;49.564;17.412;2023-02-28T05:46:14;15.77;;;6.80;;
73428;SDS011;61643;49.564;17.412;2023-02-28T05:48:41;12.02;;;5.57;;
73428;SDS011;61643;49.564;17.412;2023-02-28T05:51:08;8.23;;;3.80;;
73428;SDS011;61643;49.564;17.412;2023-02-28T05:53:34;12.73;;;4.60;;
73428;SDS011;61643;49.564;17.412;2023-02-28T05:56:00;15.60;;;6.45;;
73428;SDS011;61643;49.564;17.412;2023-02-28T05:58:26;14.10;;;4.88;;
73428;SDS011;61643;49.564;17.412;2023-02-28T06:00:59;10.82;;;4.45;;
73428;SDS011;61643;49.564;17.412;2023-02-28T06:03:26;8.25;;;4.05;;
73428;SDS011;61643;49.564;17.412;2023-02-28T06:05:52;13.45;;;5.45;;
73428;SDS011;61643;49.564;17.412;2023-02-28T06:08:19;12.55;;;6.22;;
73428;SDS011;61643;49.564;17.412;2023-02-28T06:10:45;13.13;;;4.95;;
73428;SDS011;61643;49.564;17.412;2023-02-28T06:13:11;15.85;;;6.03;;
73428;SDS011;61643;49.564;17.412;2023-02-28T06:15:38;12.85;;;6.40;;
73428;SDS011;61643;49.564;17.412;2023-02-28T06:18:04;9.73;;;4.55;;
73428;SDS011;61643;49.564;17.412;2023-02-28T06:20:30;8.88;;;3.67;;
73428;SDS011;61643;49.564;17.412;2023-02-28T06:22:56;7.60;;;4.03;;
73428;SDS011;61643;49.564;17.412;2023-02-28T06:25:26;12.32;;;5.28;;
73428;SDS011;61643;49.564;17.412;2023-02-28T06:27:53;10.13;;;4.82;;
73428;SDS011;61643;49.564;17.412;2023-02-28T06:30:20;9.60;;;4.93;;
73428;SDS011;61643;49.564;17.412;2023-02-28T06:32:52;9.27;;;4.32;;
73428;SDS011;61643;49.564;17.412;2023-02-28T06:35:18;10.10;;;4.50;;
73428;SDS011;61643;49.564;17.412;2023-02-28T06:37:44;14.88;;;6.88;;
73428;SDS011;61643;49.564;17.412;2023-02-28T06:40:11;16.23;;;4.68;;
73428;SDS011;61643;49.564;17.412;2023-02-28T06:42:38;13.85;;;5.03;;
73428;SDS011;61643;49.564;17.412;2023-02-28T06:45:04;9.55;;;4.93;;
73428;SDS011;61643;49.564;17.412;2023-02-28T06:47:35;12.32;;;5.45;;
73428;SDS011;61643;49.564;17.412;2023-02-28T06:50:02;9.25;;;5.05;;
73428;SDS011;61643;49.564;17.412;2023-02-28T06:52:29;12.10;;;4.93;;
73428;SDS011;61643;49.564;17.412;2023-02-28T06:54:55;11.07;;;4.63;;
73428;SDS011;61643;49.564;17.412;2023-02-28T06:57:27;11.25;;;5.55;;
73428;SDS011;61643;49.564;17.412;2023-02-28T06:59:57;11.50;;;5.65;;
73428;SDS011;61643;49.564;17.412;2023-02-28T07:02:24;10.02;;;5.13;;
73428;SDS011;61643;49.564;17.412;2023-02-28T07:04:50;10.57;;;4.90;;
73428;SDS011;61643;49.564;17.412;2023-02-28T07:07:16;10.55;;;4.80;;
73428;SDS011;61643;49.564;17.412;2023-02-28T07:09:42;13.55;;;6.35;;
73428;SDS011;61643;49.564;17.412;2023-02-28T07:12:08;12.63;;;5.28;;
73428;SDS011;61643;49.564;17.412;2023-02-28T07:14:36;12.75;;;5.97;;
73428;SDS011;61643;49.564;17.412;2023-02-28T07:17:02;12.57;;;6.43;;
73428;SDS011;61643;49.564;17.412;2023-02-28T07:19:28;15.90;;;6.85;;
73428;SDS011;61643;49.564;17.412;2023-02-28T07:21:54;11.85;;;5.05;;
73428;SDS011;61643;49.564;17.412;2023-02-28T07:24:20;9.52;;;5.05;;
73428;SDS011;61643;49.564;17.412;2023-02-28T07:26:46;11.88;;;5.72;;
73428;SDS011;61643;49.564;17.412;2023-02-28T07:29:12;17.33;;;8.02;;
73428;SDS011;61643;49.564;17.412;2023-02-28T07:31:38;15.98;;;6.90;;
73428;SDS011;61643;49.564;17.412;2023-02-28T07:34:04;13.82;;;6.55;;
73428;SDS011;61643;49.564;17.412;2023-02-28T07:36:30;13.65;;;5.20;;
73428;SDS011;61643;49.564;17.412;2023-02-28T07:38:57;13.35;;;5.38;;
73428;SDS011;61643;49.564;17.412;2023-02-28T07:41:24;11.60;;;4.97;;
73428;SDS011;61643;49.564;17.412;2023-02-28T07:43:53;12.88;;;6.25;;
73428;SDS011;61643;49.564;17.412;2023-02-28T07:46:20;15.13;;;6.97;;
73428;SDS011;61643;49.564;17.412;2023-02-28T07:48:46;9.30;;;4.28;;
73428;SDS011;61643;49.564;17.412;2023-02-28T07:51:12;12.40;;;4.13;;
73428;SDS011;61643;49.564;17.412;2023-02-28T07:53:39;13.00;;;5.40;;
73428;SDS011;61643;49.564;17.412;2023-02-28T07:56:06;14.32;;;5.90;;
73428;SDS011;61643;49.564;17.412;2023-02-28T07:58:32;10.73;;;4.15;;
73428;SDS011;61643;49.564;17.412;2023-02-28T08:01:08;10.35;;;5.60;;
73428;SDS011;61643;49.564;17.412;2023-02-28T08:03:35;9.50;;;4.60;;
73428;SDS011;61643;49.564;17.412;2023-02-28T08:06:02;14.27;;;6.57;;
73428;SDS011;61643;49.564;17.412;2023-02-28T08:08:29;11.18;;;5.65;;
73428;SDS011;61643;49.564;17.412;2023-02-28T08:11:00;16.73;;;6.22;;
73428;SDS011;61643;49.564;17.412;2023-02-28T08:13:27;17.83;;;8.25;;
73428;SDS011;61643;49.564;17.412;2023-02-28T08:15:55;13.52;;;6.95;;
73428;SDS011;61643;49.564;17.412;2023-02-28T08:18:21;14.10;;;6.03;;
73428;SDS011;61643;49.564;17.412;2023-02-28T08:20:47;9.52;;;4.57;;
73428;SDS011;61643;49.564;17.412;2023-02-28T08:23:14;10.65;;;5.15;;
73428;SDS011;61643;49.564;17.412;2023-02-28T08:25:40;9.52;;;5.13;;
73428;SDS011;61643;49.564;17.412;2023-02-28T08:28:06;10.82;;;5.13;;
73428;SDS011;61643;49.564;17.412;2023-02-28T08:30:32;10.60;;;5.15;;
73428;SDS011;61643;49.564;17.412;2023-02-28T08:32:58;10.32;;;5.10;;
73428;SDS011;61643;49.564;17.412;2023-02-28T08:35:24;41.97;;;15.40;;
73428;SDS011;61643;49.564;17.412;2023-02-28T08:37:50;19.73;;;6.32;;
73428;SDS011;61643;49.564;17.412;2023-02-28T08:40:16;52.03;;;16.58;;
73428;SDS011;61643;49.564;17.412;2023-02-28T08:42:44;43.90;;;14.27;;
73428;SDS011;61643;49.564;17.412;2023-02-28T08:45:11;17.80;;;6.78;;
73428;SDS011;61643;49.564;17.412;2023-02-28T08:47:38;9.95;;;4.57;;
73428;SDS011;61643;49.564;17.412;2023-02-28T08:50:04;7.78;;;3.03;;
73428;SDS011;61643;49.564;17.412;2023-02-28T08:52:31;10.75;;;4.43;;
73428;SDS011;61643;49.564;17.412;2023-02-28T08:54:57;13.60;;;6.32;;
73428;SDS011;61643;49.564;17.412;2023-02-28T08:57:23;9.38;;;4.25;;
73428;SDS011;61643;49.564;17.412;2023-02-28T08:59:52;12.02;;;5.40;;
73428;SDS011;61643;49.564;17.412;2023-02-28T09:02:18;43.13;;;16.50;;
73428;SDS011;61643;49.564;17.412;2023-02-28T09:04:45;14.10;;;6.45;;
73428;SDS011;61643;49.564;17.412;2023-02-28T09:07:11;37.90;;;17.40;;
73428;SDS011;61643;49.564;17.412;2023-02-28T09:09:37;14.43;;;6.70;;
73428;SDS011;61643;49.564;17.412;2023-02-28T09:12:25;9.85;;;4.95;;
73428;SDS011;61643;49.564;17.412;2023-02-28T09:14:52;14.32;;;6.82;;
73428;SDS011;61643;49.564;17.412;2023-02-28T09:17:19;36.28;;;13.23;;
73428;SDS011;61643;49.564;17.412;2023-02-28T09:19:47;21.42;;;8.13;;
73428;SDS011;61643;49.564;17.412;2023-02-28T09:22:13;9.65;;;4.18;;
73428;SDS011;61643;49.564;17.412;2023-02-28T09:24:39;9.88;;;4.32;;
73428;SDS011;61643;49.564;17.412;2023-02-28T09:27:06;18.15;;;7.40;;
73428;SDS011;61643;49.564;17.412;2023-02-28T09:29:32;11.07;;;4.88;;
73428;SDS011;61643;49.564;17.412;2023-02-28T09:31:59;10.07;;;4.38;;
73428;SDS011;61643;49.564;17.412;2023-02-28T09:34:26;9.68;;;4.57;;
73428;SDS011;61643;49.564;17.412;2023-02-28T09:36:52;11.18;;;5.60;;
73428;SDS011;61643;49.564;17.412;2023-02-28T09:39:21;11.25;;;5.15;;
73428;SDS011;61643;49.564;17.412;2023-02-28T09:41:49;10.85;;;5.18;;
73428;SDS011;61643;49.564;17.412;2023-02-28T09:44:22;15.25;;;6.63;;
73428;SDS011;61643;49.564;17.412;2023-02-28T09:46:56;13.63;;;6.40;;
73428;SDS011;61643;49.564;17.412;2023-02-28T09:49:34;14.98;;;6.07;;
73428;SDS011;61643;49.564;17.412;2023-02-28T09:52:06;7.88;;;3.95;;
73428;SDS011;61643;49.564;17.412;2023-02-28T09:54:41;14.07;;;5.57;;
73428;SDS011;61643;49.564;17.412;2023-02-28T10:05:33;10.90;;;5.32;;
73428;SDS011;61643;49.564;17.412;2023-02-28T10:08:13;8.27;;;4.30;;
73428;SDS011;61643;49.564;17.412;2023-02-28T10:10:44;11.27;;;5.22;;
73428;SDS011;61643;49.564;17.412;2023-02-28T10:15:45;13.43;;;6.25;;
73428;SDS011;61643;49.564;17.412;2023-02-28T10:18:16;8.82;;;4.60;;
73428;SDS011;61643;49.564;17.412;2023-02-28T10:20:52;24.88;;;9.43;;
73428;SDS011;61643;49.564;17.412;2023-02-28T10:23:23;33.90;;;11.20;;
73428;SDS011;61643;49.564;17.412;2023-02-28T10:25:55;15.80;;;7.13;;
73428;SDS011;61643;49.564;17.412;2023-02-28T10:28:25;8.73;;;4.10;;
73428;SDS011;61643;49.564;17.412;2023-02-28T10:30:54;11.43;;;5.15;;
73428;SDS011;61643;49.564;17.412;2023-02-28T10:33:24;10.68;;;5.82;;
73428;SDS011;61643;49.564;17.412;2023-02-28T10:35:54;8.02;;;3.95;;
73428;SDS011;61643;49.564;17.412;2023-02-28T10:38:24;21.50;;;8.30;;
73428;SDS011;61643;49.564;17.412;2023-02-28T10:41:04;14.95;;;6.35;;
73428;SDS011;61643;49.564;17.412;2023-02-28T10:43:31;11.85;;;5.80;;
73428;SDS011;61643;49.564;17.412;2023-02-28T10:45:58;9.88;;;4.88;;
73428;SDS011;61643;49.564;17.412;2023-02-28T10:51:09;11.75;;;5.57;;
73428;SDS011;61643;49.564;17.412;2023-02-28T10:58:48;12.15;;;6.00;;
73428;SDS011;61643;49.564;17.412;2023-02-28T11:03:57;12.65;;;6.18;;
73428;SDS011;61643;49.564;17.412;2023-02-28T11:06:31;20.55;;;7.97;;
73428;SDS011;61643;49.564;17.412;2023-02-28T11:11:44;17.02;;;7.20;;
73428;SDS011;61643;49.564;17.412;2023-02-28T11:14:20;12.43;;;5.38;;
73428;SDS011;61643;49.564;17.412;2023-02-28T11:16:48;14.00;;;5.70;;
73428;SDS011;61643;49.564;17.412;2023-02-28T11:19:19;19.88;;;7.35;;
73428;SDS011;61643;49.564;17.412;2023-02-28T11:21:52;9.98;;;5.78;;
73428;SDS011;61643;49.564;17.412;2023-02-28T11:24:27;11.95;;;5.97;;
73428;SDS011;61643;49.564;17.412;2023-02-28T11:26:56;10.70;;;5.70;;
73428;SDS011;61643;49.564;17.412;2023-02-28T11:29:24;12.05;;;5.95;;
73428;SDS011;61643;49.564;17.412;2023-02-28T11:32:18;9.65;;;5.25;;
73428;SDS011;61643;49.564;17.412;2023-02-28T11:34:59;12.70;;;6.25;;
73428;SDS011;61643;49.564;17.412;2023-02-28T11:37:26;12.32;;;5.80;;
73428;SDS011;61643;49.564;17.412;2023-02-28T11:39:53;12.70;;;6.32;;
73428;SDS011;61643;49.564;17.412;2023-02-28T11:42:42;12.75;;;6.10;;
73428;SDS011;61643;49.564;17.412;2023-02-28T11:45:21;17.33;;;6.90;;
73428;SDS011;61643;49.564;17.412;2023-02-28T11:47:49;15.25;;;6.60;;
73428;SDS011;61643;49.564;17.412;2023-02-28T11:50:42;14.00;;;6.70;;
73428;SDS011;61643;49.564;17.412;2023-02-28T11:56:24;15.52;;;6.70;;
73428;SDS011;61643;49.564;17.412;2023-02-28T12:12:32;13.35;;;6.55;;
73428;SDS011;61643;49.564;17.412;2023-02-28T12:15:21;14.40;;;5.68;;
73428;SDS011;61643;49.564;17.412;2023-02-28T12:18:01;33.00;;;12.10;;
73428;SDS011;61643;49.564;17.412;2023-02-28T12:20:55;14.18;;;6.85;;
73428;SDS011;61643;49.564;17.412;2023-02-28T12:28:43;61.50;;;17.73;;
73428;SDS011;61643;49.564;17.412;2023-02-28T12:34:08;17.30;;;7.18;;
73428;SDS011;61643;49.564;17.412;2023-02-28T12:36:38;27.48;;;9.57;;
73428;SDS011;61643;49.564;17.412;2023-02-28T12:41:43;15.77;;;7.43;;
73428;SDS011;61643;49.564;17.412;2023-02-28T12:44:31;16.85;;;7.40;;
73428;SDS011;61643;49.564;17.412;2023-02-28T12:47:02;15.07;;;6.15;;
73428;SDS011;61643;49.564;17.412;2023-02-28T12:49:41;23.00;;;8.90;;
73428;SDS011;61643;49.564;17.412;2023-02-28T12:52:12;18.95;;;7.88;;
73428;SDS011;61643;49.564;17.412;2023-02-28T12:55:06;14.70;;;7.28;;
73428;SDS011;61643;49.564;17.412;2023-02-28T13:00:27;20.30;;;8.48;;
73428;SDS011;61643;49.564;17.412;2023-02-28T13:13:57;17.67;;;7.60;;
73428;SDS011;61643;49.564;17.412;2023-02-28T13:16:28;12.07;;;5.30;;
73428;SDS011;61643;49.564;17.412;2023-02-28T13:19:15;12.85;;;6.35;;
73428;SDS011;61643;49.564;17.412;2023-02-28T13:21:45;12.65;;;7.07;;
73428;SDS011;61643;49.564;17.412;2023-02-28T13:24:36;15.50;;;7.15;;
73428;SDS011;61643;49.564;17.412;2023-02-28T13:27:11;19.15;;;7.93;;
73428;SDS011;61643;49.564;17.412;2023-02-28T13:30:58;14.15;;;6.88;;
73428;SDS011;61643;49.564;17.412;2023-02-28T13:35:48;21.08;;;8.57;;
73428;SDS011;61643;49.564;17.412;2023-02-28T13:38:32;17.75;;;7.72;;
73428;SDS011;61643;49.564;17.412;2023-02-28T13:44:19;18.33;;;7.80;;
73428;SDS011;61643;49.564;17.412;2023-02-28T13:52:02;17.38;;;6.95;;
73428;SDS011;61643;49.564;17.412;2023-02-28T14:02:26;17.23;;;8.18;;
73428;SDS011;61643;49.564;17.412;2023-02-28T14:05:19;16.52;;;7.25;;
73428;SDS011;61643;49.564;17.412;2023-02-28T14:07:55;15.57;;;7.70;;
73428;SDS011;61643;49.564;17.412;2023-02-28T14:10:32;18.00;;;8.65;;
73428;SDS011;61643;49.564;17.412;2023-02-28T14:16:05;21.60;;;9.60;;
73428;SDS011;61643;49.564;17.412;2023-02-28T14:18:37;19.83;;;8.52;;
73428;SDS011;61643;49.564;17.412;2023-02-28T14:37:53;17.00;;;7.60;;
73428;SDS011;61643;49.564;17.412;2023-02-28T14:40:26;16.63;;;7.45;;
73428;SDS011;61643;49.564;17.412;2023-02-28T14:42:59;20.63;;;9.35;;
73428;SDS011;61643;49.564;17.412;2023-02-28T14:45:28;17.17;;;8.27;;
73428;SDS011;61643;49.564;17.412;2023-02-28T14:47:56;15.63;;;8.15;;
73428;SDS011;61643;49.564;17.412;2023-02-28T14:50:34;16.30;;;8.15;;
73428;SDS011;61643;49.564;17.412;2023-02-28T14:53:01;17.17;;;8.60;;
73428;SDS011;61643;49.564;17.412;2023-02-28T14:55:29;14.85;;;7.05;;
73428;SDS011;61643;49.564;17.412;2023-02-28T14:58:00;16.85;;;8.10;;
73428;SDS011;61643;49.564;17.412;2023-02-28T15:00:33;17.83;;;6.93;;
73428;SDS011;61643;49.564;17.412;2023-02-28T15:03:17;16.27;;;8.27;;
73428;SDS011;61643;49.564;17.412;2023-02-28T15:06:06;17.70;;;8.43;;
73428;SDS011;61643;49.564;17.412;2023-02-28T15:08:39;14.85;;;7.55;;
73428;SDS011;61643;49.564;17.412;2023-02-28T15:11:07;19.63;;;9.63;;
73428;SDS011;61643;49.564;17.412;2023-02-28T15:13:44;22.80;;;10.98;;
73428;SDS011;61643;49.564;17.412;2023-02-28T15:18:57;22.83;;;11.77;;
73428;SDS011;61643;49.564;17.412;2023-02-28T15:21:27;19.48;;;8.38;;
73428;SDS011;61643;49.564;17.412;2023-02-28T15:23:57;29.90;;;10.65;;
73428;SDS011;61643;49.564;17.412;2023-02-28T15:26:29;18.67;;;9.48;;
73428;SDS011;61643;49.564;17.412;2023-02-28T15:29:03;18.95;;;8.95;;
73428;SDS011;61643;49.564;17.412;2023-02-28T15:31:32;23.92;;;12.00;;
73428;SDS011;61643;49.564;17.412;2023-02-28T15:34:05;52.05;;;21.15;;
73428;SDS011;61643;49.564;17.412;2023-02-28T15:36:32;35.28;;;15.27;;
73428;SDS011;61643;49.564;17.412;2023-02-28T15:39:03;24.25;;;10.93;;
73428;SDS011;61643;49.564;17.412;2023-02-28T15:41:44;15.60;;;7.68;;
73428;SDS011;61643;49.564;17.412;2023-02-28T15:44:17;23.42;;;11.27;;
73428;SDS011;61643;49.564;17.412;2023-02-28T15:49:24;20.15;;;10.30;;
73428;SDS011;61643;49.564;17.412;2023-02-28T15:51:51;21.42;;;9.75;;
73428;SDS011;61643;49.564;17.412;2023-02-28T15:54:24;22.00;;;9.40;;
73428;SDS011;61643;49.564;17.412;2023-02-28T15:56:56;24.25;;;10.13;;
73428;SDS011;61643;49.564;17.412;2023-02-28T15:59:24;19.65;;;9.68;;
73428;SDS011;61643;49.564;17.412;2023-02-28T16:04:35;21.60;;;10.27;;
73428;SDS011;61643;49.564;17.412;2023-02-28T16:07:03;22.35;;;9.57;;
73428;SDS011;61643;49.564;17.412;2023-02-28T16:09:37;24.08;;;11.48;;
73428;SDS011;61643;49.564;17.412;2023-02-28T16:12:03;24.33;;;10.57;;
73428;SDS011;61643;49.564;17.412;2023-02-28T16:14:31;24.38;;;10.95;;
73428;SDS011;61643;49.564;17.412;2023-02-28T16:17:02;22.08;;;10.60;;
73428;SDS011;61643;49.564;17.412;2023-02-28T16:19:30;21.67;;;9.25;;
73428;SDS011;61643;49.564;17.412;2023-02-28T16:21:56;37.58;;;15.02;;
73428;SDS011;61643;49.564;17.412;2023-02-28T16:24:22;19.70;;;8.02;;
73428;SDS011;61643;49.564;17.412;2023-02-28T16:26:49;33.17;;;14.10;;
73428;SDS011;61643;49.564;17.412;2023-02-28T16:29:30;26.20;;;11.88;;
73428;SDS011;61643;49.564;17.412;2023-02-28T16:31:59;26.33;;;11.40;;
73428;SDS011;61643;49.564;17.412;2023-02-28T16:34:26;27.45;;;12.38;;
73428;SDS011;61643;49.564;17.412;2023-02-28T16:36:52;23.38;;;10.35;;
73428;SDS011;61643;49.564;17.412;2023-02-28T16:39:18;31.23;;;11.70;;
73428;SDS011;61643;49.564;17.412;2023-02-28T16:41:46;27.63;;;13.35;;
73428;SDS011;61643;49.564;17.412;2023-02-28T16:44:16;27.05;;;13.02;;
73428;SDS011;61643;49.564;17.412;2023-02-28T16:46:53;34.53;;;13.70;;
73428;SDS011;61643;49.564;17.412;2023-02-28T16:49:20;24.65;;;10.70;;
73428;SDS011;61643;49.564;17.412;2023-02-28T16:51:46;31.50;;;10.98;;
73428;SDS011;61643;49.564;17.412;2023-02-28T16:54:12;38.28;;;15.45;;
73428;SDS011;61643;49.564;17.412;2023-02-28T16:56:39;31.65;;;13.40;;
73428;SDS011;61643;49.564;17.412;2023-02-28T16:59:10;35.20;;;16.33;;
73428;SDS011;61643;49.564;17.412;2023-02-28T17:01:37;32.90;;;14.07;;
73428;SDS011;61643;49.564;17.412;2023-02-28T17:04:03;29.70;;;14.38;;
73428;SDS011;61643;49.564;17.412;2023-02-28T17:06:30;26.40;;;11.52;;
73428;SDS011;61643;49.564;17.412;2023-02-28T17:08:57;37.05;;;15.57;;
73428;SDS011;61643;49.564;17.412;2023-02-28T17:11:24;34.08;;;14.38;;
73428;SDS011;61643;49.564;17.412;2023-02-28T17:13:51;33.45;;;13.98;;
73428;SDS011;61643;49.564;17.412;2023-02-28T17:18:54;24.45;;;11.70;;
73428;SDS011;61643;49.564;17.412;2023-02-28T17:21:22;31.75;;;14.00;;